DW8852 Weather Reports


Display with metric or nautical units.
time (UTC)temp
F
wind
direction
speed
MPH
gust
MPH
rain 1hr
in
rain 24hr
in
rain mn
in
humidity
%
barometer
mb
20240620023019 68 59 0.0 2.0 0.00 0.04 0.00 65 1016.8
20240620021515 68 59 1.0 4.0 0.00 0.04 0.00 63 1016.7
20240620020014 69 59 0.0 1.0 0.00 0.04 0.00 62 1016.5
20240620014516 69 59 1.0 4.0 0.00 0.10 0.00 62 1016.5
20240620013011 70 59 1.0 5.0 0.00 0.10 0.00 62 1016.4
20240620011510 71 57 1.0 4.0 0.00 0.10 0.00 60 1016.2
20240620010009 70 63 0.0 4.0 0.00 0.10 0.00 63 1016.1
20240620004506 70 63 0.0 2.0 0.00 0.10 0.00 61 1015.8
20240620003007 70 63 2.0 6.0 0.00 0.10 0.00 58 1015.6
20240620001505 70 67 4.0 6.0 0.00 0.10 0.00 58 1015.5
20240620000012 71 52 3.0 9.0 0.00 0.10 0.00 58 1015.5
20240619234509 71 44 2.0 7.0 0.00 0.10 0.00 58 1015.6
20240619233005 71 57 2.0 6.0 0.00 0.10 0.00 61 1015.4
20240619231503 72 53 4.0 8.0 0.00 0.10 0.00 57 1015.2
20240619230002 72 15 3.0 7.0 0.00 0.10 0.00 57 1015.2
20240619224502 72 69 1.0 6.0 0.00 0.10 0.00 59 1015.2
20240619223100 72 50 2.0 8.0 0.00 0.10 0.00 58 1015.3
20240619221600 71 66 2.0 9.0 0.00 0.10 0.00 59 1015.2
20240619220100 72 55 3.0 9.0 0.00 0.10 0.00 59 1015.3
20240619214558 71 57 2.0 8.0 0.00 0.10 0.00 61 1015.5
20240619213102 71 51 4.0 7.0 0.00 0.10 0.00 59 1015.5
20240619211556 70 76 4.0 9.0 0.00 0.10 0.00 61 1015.5
20240619210108 70 72 0.0 6.0 0.00 0.10 0.00 62 1015.7
20240619204552 69 79 1.0 6.0 0.00 0.10 0.00 63 1015.7
20240619203112 69 38 1.0 6.0 0.00 0.10 0.00 64 1015.6
20240619201550 68 51 3.0 7.0 0.00 0.10 0.00 67 1015.6
20240619200046 68 57 2.0 8.0 0.00 0.10 0.00 65 1015.7
20240619194548 68 49 5.0 12.0 0.00 0.10 0.00 65 1015.5
20240619193044 69 338 4.0 9.0 0.00 0.10 0.00 64 1015.4
20240619191549 69 47 5.0 9.0 0.00 0.10 0.00 64 1015.4
20240619190042 68 35 2.0 10.0 0.00 0.10 0.00 67 1015.3
20240619184539 68 42 5.0 8.0 0.00 0.10 0.00 66 1015.3
20240619183038 67 25 3.0 7.0 0.00 0.10 0.00 66 1015.3
20240619181538 67 360 2.0 8.0 0.00 0.10 0.00 68 1015.4
20240619180035 67 328 3.0 9.0 0.00 0.10 0.00 68 1015.3
20240619174539 66 38 6.0 12.0 0.00 0.10 0.00 68 1015.0
20240619173033 66 43 5.0 12.0 0.00 0.10 0.00 68 1014.8
20240619171529 66 18 5.0 11.0 0.00 0.10 0.00 69 1014.8
20240619170043 66 346 4.0 10.0 0.00 0.10 0.00 71 1014.6
20240619164535 66 32 5.0 11.0 0.00 0.10 0.00 71 1014.4
20240619163023 65 41 3.0 10.0 0.00 0.10 0.00 72 1014.4
20240619161522 65 350 4.0 9.0 0.00 0.10 0.00 72 1014.2
20240619160020 65 275 4.0 11.0 0.00 0.10 0.00 72 1014.0
20240619154519 64 337 3.0 9.0 0.00 0.10 0.00 74 1014.0
20240619153015 64 42 5.0 10.0 0.00 0.10 0.00 72 1013.9
20240619151517 64 32 4.0 9.0 0.00 0.10 0.00 74 1013.7
20240619150011 64 38 6.0 10.0 0.00 0.10 0.00 73 1013.4
20240619144509 63 56 6.0 12.0 0.00 0.10 0.00 76 1013.0
20240619143007 63 11 3.0 10.0 0.00 0.10 0.00 76 1012.9
20240619141505 63 73 5.0 9.0 0.00 0.10 0.00 78 1012.5
20240619140003 62 336 6.0 10.0 0.00 0.10 0.00 79 1012.4
20240619134502 61 351 3.0 10.0 0.00 0.10 0.00 81 1012.2
20240619133134 61 30 3.0 10.0 0.00 0.10 0.00 83 1012.0
20240619131603 60 19 3.0 8.0 0.00 0.10 0.00 83 1011.8
20240619130057 60 321 3.0 7.0 0.00 0.10 0.00 83 1011.7
20240619124554 60 325 4.0 8.0 0.00 0.10 0.00 83 1011.4
20240619123052 60 355 4.0 9.0 0.00 0.10 0.00 83 1011.0
20240619121549 60 331 2.0 7.0 0.00 0.10 0.00 84 1010.6
20240619120048 60 318 5.0 10.0 0.00 0.10 0.00 83 1010.5
20240619114544 60 284 6.0 12.0 0.00 0.10 0.00 84 1010.0
20240619113051 61 279 2.0 6.0 0.00 0.10 0.00 86 1009.7
20240619111540 60 229 2.0 10.0 0.00 0.10 0.00 85 1009.5
20240619110043 60 329 2.0 6.0 0.00 0.10 0.00 85 1009.3
20240619104537 60 332 2.0 7.0 0.00 0.10 0.00 85 1009.0
20240619103035 61 5 4.0 7.0 0.00 0.10 0.00 86 1008.8
20240619101540 61 238 4.0 9.0 0.00 0.10 0.00 87 1008.6
20240619100030 61 222 1.0 6.0 0.00 0.10 0.00 87 1008.1
20240619094531 61 250 2.0 9.0 0.00 0.10 0.00 87 1007.8
20240619093024 61 286 4.0 9.0 0.00 0.10 0.00 87 1007.3
20240619091521 61 296 3.0 12.0 0.00 0.10 0.00 87 1006.6
20240619090019 61 246 3.0 9.0 0.00 0.10 0.00 88 1006.4
20240619084520 61 267 2.0 7.0 0.00 0.10 0.00 88 1006.3
20240619083020 61 355 3.0 10.0 0.00 0.10 0.00 88 1006.2
20240619081522 61 253 5.0 11.0 0.00 0.10 0.00 89 1006.2
20240619080012 61 340 4.0 11.0 0.00 0.10 0.00 90 1006.0
20240619074508 61 265 4.0 10.0 0.00 0.10 0.00 90 1005.6
20240619073008 62 303 5.0 13.0 0.00 0.10 0.00 91 1005.2
20240619071505 62 288 5.0 16.0 0.00 0.10 0.00 91 1004.8
20240619070059 62 329 5.0 14.0 0.00 0.10 0.00 91 1004.6
20240619064604 62 277 5.0 13.0 0.00 0.10 0.00 91 1004.4
20240619063054 62 298 5.0 14.0 0.00 0.10 0.00 91 1004.1
20240619061553 62 292 3.0 9.0 0.00 0.10 0.00 92 1003.9
20240619060102 62 242 5.0 12.0 0.00 0.10 0.00 92 1003.4
20240619054547 63 233 6.0 14.0 0.00 0.10 0.00 92 1003.1
20240619053043 63 312 5.0 10.0 0.00 0.10 0.00 92 1002.4
20240619051541 63 286 4.0 14.0 0.00 0.10 0.00 92 1002.2
20240619050042 63 238 5.0 12.0 0.00 0.10 0.00 92 1001.8
20240619044543 64 297 4.0 12.0 0.00 0.10 0.10 92 1001.7
20240619043037 64 213 5.0 14.0 0.00 0.10 0.10 92 1001.8
20240619041533 65 252 2.0 7.0 0.02 0.10 0.10 92 1001.5
20240619040031 65 270 2.0 8.0 0.04 0.10 0.10 92 1001.3
20240619034528 65 243 3.0 9.0 0.04 0.10 0.10 91 1000.7
20240619033023 65 231 4.0 11.0 0.04 0.10 0.10 90 999.7
20240619031532 66 270 4.0 10.0 0.01 0.07 0.07 89 999.5
20240619030033 67 220 4.0 13.0 0.00 0.06 0.06 87 999.5
20240619024520 68 284 6.0 18.0 0.00 0.06 0.06 87 999.2